Time;durP1;ratioP1;P1;durP2;ratioP2;P2;SDS_P1;SDS_P2;PMS_P1;PMS_P2;Temp;Humidity;BMP_temperature;BMP_pressure;BME280_temperature;BME280_humidity;BME280_pressure;Samples;Min_cycle;Max_cycle;Signal;HPM_P1;HPM_P2
2021/12/21 00:00:00;;;;;;;7.53;3.80;;;5.00;77.00;;;;;;5032810;28;20040;-86
2021/12/21 00:03:33;;;;;;;6.00;4.00;;;5.00;76.90;;;;;;5009607;28;20052;-87
2021/12/21 00:07:25;;;;;;;5.88;3.78;;;4.90;77.00;;;;;;5023065;28;20061;-87
2021/12/21 00:10:48;;;;;;;5.43;3.58;;;4.90;76.90;;;;;;4956977;28;20631;-89
2021/12/21 00:18:22;;;;;;;6.82;4.55;;;4.80;76.90;;;;;;5033395;28;20091;-86
2021/12/21 00:24:45;;;;;;;;;;;;;;;;;;;;;
2021/12/21 00:28:41;;;;;;;;;;;;;;;;;;;;;
2021/12/21 00:32:08;;;;;;;;;;;;;;;;;;;;;
2021/12/21 00:39:16;;;;;;;6.95;4.40;;;4.70;77.00;;;;;;4910461;28;20507;-86
2021/12/21 00:42:29;;;;;;;;;;;;;;;;;;;;;
2021/12/21 00:45:33;;;;;;;7.70;4.32;;;4.60;77.00;;;;;;4962574;28;20062;-86
2021/12/21 00:49:45;;;;;;;6.25;4.20;;;4.60;76.80;;;;;;4916615;29;20102;-86
2021/12/21 00:52:26;;;;;;;6.85;3.92;;;4.50;77.00;;;;;;4859242;29;20045;-86
2021/12/21 01:29:29;;;;;;;6.78;4.57;;;4.30;76.90;;;;;;4929228;29;20040;-86
2021/12/21 01:35:00;;;;;;;6.78;4.57;;;4.30;76.90;;;;;;4921018;29;20515;-86
2021/12/21 01:43:03;;;;;;;;;;;;;;;;;;;;;
2021/12/21 01:50:01;;;;;;;8.10;4.57;;;4.10;76.80;;;;;;4976788;28;20457;-86
2021/12/21 02:00:49;;;;;;;6.70;4.65;;;4.00;77.40;;;;;;4956980;29;20081;-86
2021/12/21 02:04:23;;;;;;;7.15;4.38;;;4.00;76.90;;;;;;4933429;28;20082;-86
2021/12/21 02:07:49;;;;;;;;;;;;;;;;;;;;;
2021/12/21 02:11:13;;;;;;;7.78;4.60;;;4.00;76.90;;;;;;4898485;29;20039;-88
2021/12/21 02:19:18;;;;;;;;;;;;;;;;;;;;;
2021/12/21 02:23:08;;;;;;;6.47;4.68;;;3.90;76.80;;;;;;4927167;29;20040;-86
2021/12/21 02:30:28;;;;;;;7.07;4.70;;;3.90;76.80;;;;;;4956687;29;20075;-85
2021/12/21 02:38:09;;;;;;;6.47;4.32;;;3.80;76.80;;;;;;4907560;29;20462;-86
2021/12/21 02:41:51;;;;;;;6.25;4.13;;;3.80;76.80;;;;;;4872170;29;20126;-86
2021/12/21 02:45:34;;;;;;;;;;;;;;;;;;;;;
2021/12/21 02:49:25;;;;;;;;;;;;;;;;;;;;;
2021/12/21 02:56:21;;;;;;;8.23;5.05;;;3.70;76.60;;;;;;4926126;29;20138;-86
2021/12/21 02:59:23;;;;;;;6.80;4.63;;;3.70;76.70;;;;;;4920725;29;20048;-86
2021/12/21 03:02:42;;;;;;;7.45;4.43;;;3.70;76.60;;;;;;4904519;29;20080;-86
2021/12/21 03:10:34;;;;;;;7.50;4.80;;;3.70;76.70;;;;;;4898647;29;20081;-85
2021/12/21 03:20:02;;;;;;;6.25;4.00;;;3.50;76.50;;;;;;4806759;29;20420;-85
2021/12/21 03:23:26;;;;;;;6.47;4.65;;;3.50;76.60;;;;;;4797353;29;20112;-86
2021/12/21 03:26:05;;;;;;;7.72;4.60;;;3.50;76.60;;;;;;4793070;29;20523;-85
2021/12/21 04:00:38;;;;;;;;;;;;;;;;;;;;;
2021/12/21 04:04:24;;;;;;;6.32;4.30;;;3.30;76.60;;;;;;5040209;28;20040;-84
2021/12/21 04:11:40;;;;;;;6.88;4.25;;;3.30;76.50;;;;;;5035453;28;20040;-85
2021/12/21 04:15:02;;;;;;;6.97;4.65;;;3.30;76.50;;;;;;4987378;28;20407;-84
2021/12/21 04:18:22;;;;;;;6.65;4.35;;;3.20;76.50;;;;;;5001828;28;20033;-86
2021/12/21 04:24:02;;;;;;;7.07;4.68;;;3.20;76.40;;;;;;5016931;28;20045;-86
2021/12/21 04:27:18;;;;;;;;;;;;;;;;;;;;;
2021/12/21 04:30:23;;;;;;;;;;;;;;;;;;;;;
2021/12/21 04:33:09;;;;;;;6.15;4.50;;;3.20;76.30;;;;;;5033202;28;20037;-85
2021/12/21 04:40:25;;;;;;;;;;;;;;;;;;;;;
2021/12/21 04:43:33;;;;;;;8.30;4.68;;;3.10;76.30;;;;;;4953120;28;20039;-85
2021/12/21 04:47:29;;;;;;;;;;;;;;;;;;;;;
2021/12/21 04:54:17;;;;;;;8.07;4.97;;;3.10;76.40;;;;;;5034737;28;20083;-85
2021/12/21 04:57:59;;;;;;;6.25;4.40;;;3.10;76.30;;;;;;4999157;28;20042;-86
2021/12/21 05:01:23;;;;;;;7.35;5.07;;;3.00;76.40;;;;;;5029987;28;20128;-87
2021/12/21 05:04:27;;;;;;;7.00;5.00;;;3.00;76.30;;;;;;5034619;28;20044;-85
2021/12/21 05:07:50;;;;;;;8.27;5.05;;;3.00;76.30;;;;;;5024283;28;20037;-87
2021/12/21 05:10:51;;;;;;;6.60;4.90;;;3.00;76.30;;;;;;5024187;28;20113;-86
2021/12/21 05:13:23;;;;;;;7.80;5.13;;;3.00;76.30;;;;;;5006644;28;20034;-87
2021/12/21 05:15:58;;;;;;;6.72;4.88;;;3.00;76.30;;;;;;5018068;28;20458;-86
2021/12/21 05:18:26;;;;;;;8.02;5.25;;;3.00;76.20;;;;;;5016937;28;20528;-85
2021/12/21 05:20:53;;;;;;;7.00;4.63;;;3.00;76.20;;;;;;5016866;28;20033;-85
2021/12/21 05:23:20;;;;;;;7.65;5.03;;;3.00;76.20;;;;;;5016878;28;20035;-84
2021/12/21 05:25:47;;;;;;;7.05;5.07;;;3.00;76.10;;;;;;5000507;28;20033;-85
2021/12/21 05:28:15;;;;;;;8.50;5.65;;;3.00;76.10;;;;;;5000744;28;20029;-82
2021/12/21 05:30:43;;;;;;;7.05;5.10;;;3.00;76.10;;;;;;5000313;28;20026;-82
2021/12/21 05:33:15;;;;;;;7.43;4.88;;;3.00;76.10;;;;;;5016341;28;20026;-84
2021/12/21 05:35:42;;;;;;;8.57;5.22;;;3.00;76.10;;;;;;5016080;28;20029;-84
2021/12/21 05:38:10;;;;;;;7.03;5.22;;;3.00;76.10;;;;;;4999366;28;20034;-84
2021/12/21 05:40:44;;;;;;;7.07;4.90;;;3.00;76.10;;;;;;5002873;28;20060;-84
2021/12/21 05:43:12;;;;;;;8.82;5.53;;;2.90;76.00;;;;;;5003434;28;20030;-84
2021/12/21 05:45:39;;;;;;;7.72;4.90;;;3.00;76.00;;;;;;5034681;28;20049;-84
2021/12/21 05:48:10;;;;;;;7.22;5.20;;;2.90;76.00;;;;;;5020402;28;20031;-88
2021/12/21 05:50:39;;;;;;;7.25;4.57;;;3.00;76.00;;;;;;5057946;28;20025;-85
2021/12/21 05:56:26;;;;;;;6.88;4.78;;;2.90;76.00;;;;;;5055723;28;20179;-84
2021/12/21 05:59:00;;;;;;;7.75;5.03;;;2.90;76.00;;;;;;5055526;28;20029;-86
2021/12/21 06:01:59;;;;;;;7.22;4.97;;;2.90;76.00;;;;;;5055638;28;20041;-87
2021/12/21 06:05:23;;;;;;;6.63;5.03;;;2.90;76.00;;;;;;5057497;28;20091;-87
2021/12/21 06:08:19;;;;;;;8.10;5.07;;;2.90;76.00;;;;;;5056171;28;20040;-85
2021/12/21 06:10:49;;;;;;;6.90;5.03;;;2.80;75.90;;;;;;5023661;28;20047;-84
2021/12/21 06:27:20;;;;;;;7.38;5.35;;;2.80;76.00;;;;;;5055525;28;20044;-84
2021/12/21 06:29:53;;;;;;;8.00;5.30;;;2.80;76.00;;;;;;5025108;28;20504;-83
2021/12/21 06:32:59;;;;;;;6.72;5.30;;;2.70;76.00;;;;;;5052821;28;20386;-83
2021/12/21 06:39:11;;;;;;;6.50;4.85;;;2.70;75.90;;;;;;5056884;28;20059;-85
2021/12/21 06:42:16;;;;;;;6.50;4.53;;;2.70;75.90;;;;;;5043849;28;20041;-83
2021/12/21 06:45:47;;;;;;;6.57;4.80;;;2.80;76.10;;;;;;5050089;28;20065;-84
2021/12/21 06:55:30;;;;;;;7.40;5.00;;;2.70;75.90;;;;;;5024958;28;20045;-82
2021/12/21 06:58:19;;;;;;;7.47;5.38;;;2.70;75.90;;;;;;5023493;28;20124;-83
2021/12/21 07:01:19;;;;;;;8.68;6.18;;;2.70;76.00;;;;;;5038091;28;20029;-83
2021/12/21 07:04:14;;;;;;;8.13;5.60;;;2.60;75.90;;;;;;5033046;28;20045;-84
2021/12/21 07:07:09;;;;;;;6.65;5.07;;;2.60;76.00;;;;;;5040707;28;20033;-84
2021/12/21 07:10:52;;;;;;;6.70;5.20;;;2.70;75.90;;;;;;5002582;28;20061;-84
2021/12/21 07:19:37;;;;;;;7.78;5.30;;;2.60;75.80;;;;;;4981489;28;20045;-83
2021/12/21 07:23:02;;;;;;;7.40;5.55;;;2.60;75.80;;;;;;5014574;28;20034;-83
2021/12/21 07:26:23;;;;;;;7.72;5.47;;;2.60;75.80;;;;;;5000120;28;20036;-84
2021/12/21 07:29:25;;;;;;;7.03;5.13;;;2.50;75.70;;;;;;5013666;28;20475;-84
2021/12/21 07:32:12;;;;;;;7.13;5.45;;;2.60;75.90;;;;;;4987213;28;20471;-85
2021/12/21 07:35:12;;;;;;;7.28;5.30;;;2.50;75.80;;;;;;4976795;28;20519;-85
2021/12/21 07:38:25;;;;;;;8.43;5.78;;;2.50;75.80;;;;;;4980635;28;20046;-84
2021/12/21 07:41:04;;;;;;;7.45;6.00;;;2.50;75.80;;;;;;4985939;28;20037;-84
2021/12/21 07:43:49;;;;;;;7.60;5.90;;;2.50;75.80;;;;;;5002396;28;20030;-83
2021/12/21 07:46:21;;;;;;;7.88;5.70;;;2.50;75.70;;;;;;4998868;28;20573;-83
2021/12/21 07:48:49;;;;;;;8.90;6.05;;;2.50;75.70;;;;;;5000032;28;20445;-84
2021/12/21 07:51:24;;;;;;;6.80;5.20;;;2.50;75.70;;;;;;5033722;28;20033;-83
2021/12/21 07:53:55;;;;;;;9.45;6.75;;;2.50;75.70;;;;;;5001229;28;20486;-84
2021/12/21 07:56:21;;;;;;;8.73;6.32;;;2.50;75.70;;;;;;4999929;28;20036;-84
2021/12/21 07:58:50;;;;;;;8.73;6.07;;;2.50;75.70;;;;;;4983564;28;20140;-86
2021/12/21 08:02:01;;;;;;;8.40;6.22;;;2.50;75.60;;;;;;5015934;28;20051;-84
2021/12/21 08:04:34;;;;;;;8.25;5.63;;;2.50;75.60;;;;;;5000772;28;20041;-84
2021/12/21 08:07:33;;;;;;;7.97;5.57;;;2.50;75.60;;;;;;5006959;28;20037;-84
2021/12/21 08:13:29;;;;;;;9.20;5.93;;;2.40;75.70;;;;;;4994106;28;20036;-83
2021/12/21 08:16:45;;;;;;;8.55;6.03;;;2.40;75.60;;;;;;5054253;28;20095;-84
2021/12/21 08:19:24;;;;;;;8.75;6.43;;;2.40;75.60;;;;;;5021150;28;20437;-84
2021/12/21 08:22:35;;;;;;;9.30;6.43;;;2.50;75.70;;;;;;5021136;28;20033;-84
2021/12/21 08:26:09;;;;;;;9.13;6.40;;;2.40;75.70;;;;;;5035713;28;20047;-83
2021/12/21 08:28:54;;;;;;;9.40;6.40;;;2.40;75.70;;;;;;4991176;28;20033;-84
2021/12/21 08:31:59;;;;;;;9.70;6.88;;;2.40;75.70;;;;;;5035086;28;20045;-82
2021/12/21 08:35:12;;;;;;;8.73;6.25;;;2.40;75.60;;;;;;5050751;28;20464;-84
2021/12/21 08:38:03;;;;;;;10.27;6.93;;;2.40;75.70;;;;;;5003031;28;20037;-83
2021/12/21 08:41:21;;;;;;;9.15;6.50;;;2.30;75.70;;;;;;5053998;28;20040;-83
2021/12/21 08:43:57;;;;;;;8.55;6.80;;;2.30;75.70;;;;;;5035803;28;20036;-84
2021/12/21 08:47:21;;;;;;;9.55;6.93;;;2.40;75.80;;;;;;5001941;28;20146;-83
2021/12/21 08:53:49;;;;;;;8.25;5.97;;;2.30;75.70;;;;;;5053747;28;19955;-83
2021/12/21 09:01:09;;;;;;;8.82;6.18;;;2.20;75.80;;;;;;5002277;28;20032;-84
2021/12/21 09:07:43;;;;;;;8.75;6.22;;;2.20;75.90;;;;;;5031525;28;20124;-84
2021/12/21 09:10:51;;;;;;;9.32;6.72;;;2.20;76.00;;;;;;5053217;28;20040;-86
2021/12/21 09:14:17;;;;;;;8.13;6.70;;;2.20;76.00;;;;;;5051669;28;20055;-84
2021/12/21 09:17:08;;;;;;;8.80;5.85;;;2.30;76.00;;;;;;5041351;28;20049;-84
2021/12/21 09:20:38;;;;;;;9.25;6.47;;;2.30;76.00;;;;;;5043204;28;20044;-84
2021/12/21 09:24:17;;;;;;;;;;;;;;;;;;;;;
2021/12/21 09:27:47;;;;;;;9.05;6.38;;;2.30;76.10;;;;;;4974781;28;20043;-84
2021/12/21 09:31:05;;;;;;;9.10;6.40;;;2.30;76.10;;;;;;4955297;28;20411;-85
2021/12/21 09:38:40;;;;;;;9.60;6.80;;;2.30;76.10;;;;;;4976002;28;20049;-85
2021/12/21 09:42:09;;;;;;;10.18;7.00;;;2.30;76.10;;;;;;4986403;28;20042;-85
2021/12/21 09:45:53;;;;;;;9.48;6.57;;;2.40;76.30;;;;;;4984428;28;20061;-84
2021/12/21 10:03:17;;;;;;;9.55;6.25;;;2.40;76.40;;;;;;5036865;28;20536;-85
2021/12/21 10:10:18;;;;;;;9.40;6.75;;;2.40;76.40;;;;;;5036856;28;20048;-84
2021/12/21 10:14:04;;;;;;;9.68;7.10;;;2.50;76.50;;;;;;5009727;28;20048;-86
2021/12/21 10:17:19;;;;;;;10.00;7.13;;;2.50;76.50;;;;;;5007673;28;20123;-86
2021/12/21 10:24:08;;;;;;;8.93;6.75;;;2.50;76.60;;;;;;4989785;28;20128;-86
2021/12/21 10:30:54;;;;;;;9.95;6.65;;;2.50;76.70;;;;;;4994954;28;20153;-86
2021/12/21 10:38:09;;;;;;;9.32;6.88;;;2.60;76.70;;;;;;4977303;28;20484;-85
2021/12/21 10:49:07;;;;;;;9.13;6.90;;;2.60;76.90;;;;;;4970550;28;20019;-85
2021/12/21 11:05:37;;;;;;;8.68;6.40;;;2.70;77.10;;;;;;4956038;29;20046;-85
2021/12/21 11:16:10;;;;;;;8.77;6.65;;;2.70;77.10;;;;;;5055546;28;20051;-85
2021/12/21 11:18:47;;;;;;;9.05;6.80;;;2.70;77.00;;;;;;5021751;28;20487;-85
2021/12/21 11:21:13;;;;;;;10.23;7.30;;;2.80;77.20;;;;;;5037872;28;20112;-83
2021/12/21 11:23:40;;;;;;;8.80;6.97;;;2.80;77.20;;;;;;5020847;28;20025;-85
2021/12/21 11:26:12;;;;;;;8.85;7.00;;;2.80;77.20;;;;;;5055067;28;20028;-86
2021/12/21 11:28:44;;;;;;;9.65;7.32;;;2.80;77.10;;;;;;5021523;28;20036;-86
2021/12/21 11:31:12;;;;;;;9.85;7.18;;;2.90;77.20;;;;;;5054005;28;20087;-85
2021/12/21 11:33:45;;;;;;;9.02;7.10;;;2.90;77.10;;;;;;5020301;28;20033;-86
2021/12/21 11:38:59;;;;;;;8.43;6.50;;;3.00;77.10;;;;;;5054193;28;20477;-85
2021/12/21 11:42:12;;;;;;;9.95;7.43;;;3.00;77.10;;;;;;5054809;28;20082;-87
2021/12/21 11:45:25;;;;;;;8.98;7.10;;;3.10;77.20;;;;;;5054005;28;20036;-86
2021/12/21 11:48:03;;;;;;;9.18;6.65;;;3.10;77.20;;;;;;5036701;28;20124;-86
2021/12/21 11:50:54;;;;;;;9.73;7.10;;;3.10;77.10;;;;;;5054492;28;20033;-85
2021/12/21 11:53:51;;;;;;;9.65;7.55;;;3.10;77.10;;;;;;5054681;28;20029;-85
2021/12/21 11:56:39;;;;;;;10.30;7.65;;;3.10;77.20;;;;;;5016057;28;20056;-86
2021/12/21 11:59:18;;;;;;;9.77;7.60;;;3.10;77.10;;;;;;4998102;28;20046;-86
2021/12/21 12:02:03;;;;;;;10.55;7.75;;;3.10;77.10;;;;;;5002290;28;20095;-86
2021/12/21 12:04:38;;;;;;;10.40;7.45;;;3.20;77.20;;;;;;4973577;28;20045;-86
2021/12/21 12:07:21;;;;;;;9.77;7.93;;;3.20;77.20;;;;;;5000341;28;20038;-85
2021/12/21 12:10:44;;;;;;;9.40;7.45;;;3.20;77.30;;;;;;5018100;28;20041;-86
2021/12/21 12:14:09;;;;;;;9.10;7.15;;;3.20;77.20;;;;;;5009915;28;20044;-87
2021/12/21 12:17:26;;;;;;;10.57;7.35;;;3.20;77.30;;;;;;5016562;28;20048;-86
2021/12/21 12:20:00;;;;;;;10.48;8.13;;;3.30;77.30;;;;;;5005299;28;20541;-84
2021/12/21 12:23:05;;;;;;;11.00;7.73;;;3.30;77.30;;;;;;5000165;28;20029;-87
2021/12/21 12:25:51;;;;;;;9.40;7.53;;;3.30;77.40;;;;;;5016040;28;20049;-86
2021/12/21 12:29:03;;;;;;;10.02;7.65;;;3.30;77.40;;;;;;4985854;28;20132;-86
2021/12/21 12:32:26;;;;;;;9.45;7.47;;;3.30;77.40;;;;;;5029374;28;20037;-87
2021/12/21 12:36:29;;;;;;;;;;;;;;;;;;;;;
2021/12/21 12:39:33;;;;;;;8.60;7.10;;;3.40;77.60;;;;;;4995621;28;20045;-87
2021/12/21 12:43:17;;;;;;;8.82;6.47;;;3.40;77.50;;;;;;5038106;28;20033;-87
2021/12/21 12:50:33;;;;;;;9.10;6.70;;;3.40;77.50;;;;;;4977216;28;20046;-87
2021/12/21 12:53:42;;;;;;;8.90;7.32;;;3.50;77.60;;;;;;4902020;28;20035;-87
2021/12/21 12:56:53;;;;;;;10.30;7.88;;;3.50;77.80;;;;;;4984119;28;20092;-87
2021/12/21 13:00:48;;;;;;;8.27;6.53;;;3.50;77.70;;;;;;4944476;28;20058;-86
2021/12/21 13:04:23;;;;;;;8.73;7.10;;;3.60;77.80;;;;;;4961044;29;20043;-87
2021/12/21 13:10:24;;;;;;;9.55;6.95;;;3.60;77.50;;;;;;5034014;28;20121;-86
2021/12/21 13:13:42;;;;;;;8.40;6.90;;;3.70;77.60;;;;;;5007254;28;20502;-85
2021/12/21 13:16:49;;;;;;;8.93;7.22;;;3.80;77.70;;;;;;5005113;28;20176;-86
2021/12/21 13:19:36;;;;;;;8.77;7.10;;;3.80;77.60;;;;;;5022779;28;20034;-86
2021/12/21 13:22:10;;;;;;;9.63;7.78;;;3.80;77.50;;;;;;5020737;28;20183;-87
2021/12/21 13:24:52;;;;;;;9.60;7.55;;;3.90;77.60;;;;;;5004523;28;20125;-86
2021/12/21 13:27:36;;;;;;;9.65;7.03;;;3.90;77.60;;;;;;5021212;28;20026;-86
2021/12/21 13:33:10;;;;;;;9.93;7.03;;;3.90;77.60;;;;;;5008463;28;20121;-87
2021/12/21 13:35:46;;;;;;;9.10;7.32;;;3.90;77.70;;;;;;4982585;28;20038;-86
2021/12/21 13:38:46;;;;;;;10.77;8.07;;;4.00;77.70;;;;;;5004381;28;20561;-87
2021/12/21 13:41:41;;;;;;;8.98;6.97;;;4.00;77.80;;;;;;4991031;28;20034;-86
2021/12/21 13:44:20;;;;;;;8.95;6.75;;;4.00;77.80;;;;;;5004493;28;20446;-87
2021/12/21 13:46:54;;;;;;;10.40;7.82;;;4.00;77.70;;;;;;5017131;28;20095;-88
2021/12/21 13:49:33;;;;;;;8.80;7.07;;;4.00;77.80;;;;;;5004193;28;20033;-87
2021/12/21 13:52:13;;;;;;;9.52;7.88;;;4.10;77.90;;;;;;5003724;28;20067;-87
2021/12/21 13:55:45;;;;;;;9.23;6.72;;;4.10;77.80;;;;;;5025067;28;20128;-86
2021/12/21 13:58:42;;;;;;;8.65;6.97;;;4.20;77.80;;;;;;5005720;28;20056;-86
2021/12/21 14:02:06;;;;;;;8.50;6.72;;;4.20;77.80;;;;;;5048518;28;20045;-88
2021/12/21 14:05:07;;;;;;;9.45;6.82;;;4.20;77.90;;;;;;5026773;28;20481;-86
2021/12/21 14:07:43;;;;;;;8.48;6.40;;;4.20;77.90;;;;;;5039776;28;20032;-87
2021/12/21 14:10:46;;;;;;;7.72;6.43;;;4.30;77.90;;;;;;5053984;28;20167;-85
2021/12/21 14:13:31;;;;;;;7.90;6.25;;;4.30;77.90;;;;;;5039174;28;20110;-85
2021/12/21 14:19:13;;;;;;;7.82;6.40;;;4.40;77.90;;;;;;5039184;28;20040;-86
2021/12/21 14:22:02;;;;;;;9.45;6.45;;;4.40;77.80;;;;;;5009231;28;20469;-89
2021/12/21 14:25:01;;;;;;;8.18;6.47;;;4.40;77.90;;;;;;5042462;28;20477;-86
2021/12/21 14:27:35;;;;;;;9.30;6.65;;;4.50;77.80;;;;;;5026643;28;20053;-87
2021/12/21 14:30:23;;;;;;;10.25;7.03;;;4.50;77.80;;;;;;5050449;28;20040;-86
2021/12/21 14:33:19;;;;;;;;;;;;;;;;;;;;;
2021/12/21 14:36:13;;;;;;;8.60;6.30;;;4.50;77.80;;;;;;5054133;28;20049;-86
2021/12/21 14:39:25;;;;;;;8.90;6.93;;;4.50;77.80;;;;;;5051545;28;20079;-86
2021/12/21 14:42:30;;;;;;;;;;;;;;;;;;;;;
2021/12/21 14:45:02;;;;;;;7.90;6.60;;;4.60;77.80;;;;;;5040681;28;20048;-86
2021/12/21 14:47:40;;;;;;;8.15;6.40;;;4.60;77.70;;;;;;5055699;28;20036;-86
2021/12/21 14:50:16;;;;;;;8.45;6.65;;;4.60;77.80;;;;;;5039481;28;20478;-86
2021/12/21 14:52:55;;;;;;;8.77;6.53;;;4.60;77.70;;;;;;5038591;28;20036;-86
2021/12/21 14:55:52;;;;;;;;;;;;;;;;;;;;;
2021/12/21 14:58:24;;;;;;;8.43;6.35;;;4.70;77.80;;;;;;5050614;28;20052;-87
2021/12/21 15:01:03;;;;;;;7.33;6.00;;;4.60;77.70;;;;;;5039466;28;20061;-86
2021/12/21 15:03:54;;;;;;;7.13;5.78;;;4.60;77.70;;;;;;5038187;28;20040;-86
2021/12/21 15:06:41;;;;;;;9.10;6.55;;;4.70;77.80;;;;;;5038257;28;20097;-87
2021/12/21 15:09:25;;;;;;;8.30;6.20;;;4.70;77.70;;;;;;5010871;28;20036;-87
2021/12/21 15:11:59;;;;;;;8.02;5.97;;;4.70;77.60;;;;;;5054115;28;20033;-86
2021/12/21 15:14:37;;;;;;;8.77;6.40;;;4.70;77.60;;;;;;5025534;28;20036;-86
2021/12/21 15:17:12;;;;;;;8.50;6.63;;;4.70;77.50;;;;;;5037884;28;20032;-86
2021/12/21 15:20:11;;;;;;;7.70;5.68;;;4.70;77.60;;;;;;5038864;28;20099;-87
2021/12/21 15:22:49;;;;;;;8.07;5.72;;;4.70;77.50;;;;;;5054251;28;20041;-86
2021/12/21 15:26:01;;;;;;;7.47;6.15;;;4.70;77.50;;;;;;5053595;28;20045;-87
2021/12/21 15:28:32;;;;;;;7.95;6.07;;;4.70;78.10;;;;;;5053426;28;20091;-87
2021/12/21 15:31:15;;;;;;;7.63;5.80;;;4.70;77.40;;;;;;5054926;28;20031;-88
2021/12/21 15:33:46;;;;;;;7.30;5.60;;;4.70;77.50;;;;;;5022268;28;20083;-86
2021/12/21 15:36:24;;;;;;;8.80;7.05;;;4.70;77.40;;;;;;5023315;28;20141;-86
2021/12/21 15:39:10;;;;;;;7.90;6.28;;;4.70;77.40;;;;;;5054260;28;20029;-86
2021/12/21 15:42:13;;;;;;;8.43;6.93;;;4.70;77.50;;;;;;5037962;28;20041;-87
2021/12/21 15:44:49;;;;;;;8.13;5.90;;;4.70;77.40;;;;;;5041614;28;20043;-87
2021/12/21 15:47:19;;;;;;;8.00;6.47;;;4.70;77.30;;;;;;5036851;28;20409;-85
2021/12/21 15:49:53;;;;;;;9.20;6.55;;;4.70;77.30;;;;;;5053209;28;20095;-85
2021/12/21 15:52:21;;;;;;;8.82;6.78;;;4.70;77.30;;;;;;5036836;28;20021;-83
2021/12/21 15:54:47;;;;;;;8.95;6.25;;;4.70;77.30;;;;;;5036809;28;20037;-84
2021/12/21 15:57:21;;;;;;;9.05;7.13;;;4.70;77.30;;;;;;5037009;28;20123;-81
2021/12/21 16:00:19;;;;;;;9.48;6.82;;;4.70;77.30;;;;;;5036658;28;20041;-86
2021/12/21 16:02:48;;;;;;;8.45;6.43;;;4.60;77.30;;;;;;5004971;28;20048;-86
2021/12/21 16:05:18;;;;;;;8.40;6.72;;;4.60;77.10;;;;;;5036593;28;20043;-84
2021/12/21 16:07:46;;;;;;;8.10;6.40;;;4.60;77.20;;;;;;5037109;28;20041;-89
2021/12/21 16:14:30;;;;;;;8.55;6.80;;;4.60;77.20;;;;;;5037917;28;20075;-87
2021/12/21 16:17:09;;;;;;;9.30;6.88;;;4.60;77.10;;;;;;5024472;28;20087;-86
2021/12/21 16:19:51;;;;;;;10.27;7.22;;;4.60;77.00;;;;;;5037253;28;20032;-87
2021/12/21 16:23:04;;;;;;;9.10;7.72;;;4.60;77.00;;;;;;5053211;28;20035;-87
2021/12/21 16:25:48;;;;;;;9.15;7.10;;;4.50;77.00;;;;;;5051835;28;20070;-88
2021/12/21 16:28:47;;;;;;;8.75;7.00;;;4.50;77.00;;;;;;5022125;28;20033;-88
2021/12/21 16:31:39;;;;;;;9.85;7.05;;;4.50;77.00;;;;;;5043365;28;20128;-87
2021/12/21 16:34:37;;;;;;;8.73;6.60;;;4.40;76.90;;;;;;5053905;28;20037;-87
2021/12/21 16:37:17;;;;;;;9.45;7.25;;;4.50;77.00;;;;;;5037860;28;20465;-87
2021/12/21 16:40:07;;;;;;;8.88;7.18;;;4.40;76.80;;;;;;5037319;28;20025;-87
2021/12/21 16:42:44;;;;;;;9.00;7.00;;;4.40;76.90;;;;;;5037493;28;20083;-88
2021/12/21 16:45:30;;;;;;;9.40;7.47;;;4.40;76.90;;;;;;5036576;28;20056;-87
2021/12/21 16:48:47;;;;;;;8.60;6.95;;;4.40;76.90;;;;;;5053290;28;20032;-85
2021/12/21 16:51:37;;;;;;;8.20;6.43;;;4.40;76.90;;;;;;5052276;28;20103;-86
2021/12/21 16:54:15;;;;;;;9.15;7.00;;;4.40;76.80;;;;;;5004869;28;20070;-85
2021/12/21 16:57:00;;;;;;;9.32;6.32;;;4.30;76.80;;;;;;5038663;28;20080;-85
2021/12/21 16:59:59;;;;;;;;;;;;;;;;;;;;;
2021/12/21 17:02:39;;;;;;;8.02;6.55;;;4.30;76.80;;;;;;5050612;28;20041;-86
2021/12/21 17:05:46;;;;;;;8.43;6.88;;;4.30;76.80;;;;;;5042654;28;20086;-84
2021/12/21 17:08:39;;;;;;;9.80;7.18;;;4.30;76.80;;;;;;5041561;28;20037;-85
2021/12/21 17:11:26;;;;;;;;;;;4.20;76.80;;;;;;5038031;28;20021;-90
2021/12/21 17:14:25;;;;;;;7.53;5.78;;;4.20;76.70;;;;;;5052922;28;19987;-88
2021/12/21 17:17:05;;;;;;;10.15;7.00;;;4.20;76.80;;;;;;5036334;28;20126;-88
2021/12/21 17:19:38;;;;;;;8.30;6.78;;;4.20;76.80;;;;;;5032458;28;20033;-87
2021/12/21 17:22:07;;;;;;;9.32;7.07;;;4.20;76.80;;;;;;5036073;28;20025;-86
2021/12/21 17:24:40;;;;;;;9.02;7.25;;;4.20;76.90;;;;;;5037270;28;20335;-88
2021/12/21 17:27:21;;;;;;;;;;;;;;;;;;;;;
2021/12/21 17:29:51;;;;;;;9.80;7.15;;;4.10;76.80;;;;;;5038882;28;20112;-85
2021/12/21 17:32:25;;;;;;;9.55;6.78;;;4.10;76.70;;;;;;5036285;28;20488;-88
2021/12/21 17:35:23;;;;;;;9.30;6.68;;;4.10;76.80;;;;;;5037451;28;20152;-88
2021/12/21 17:38:08;;;;;;;8.27;6.50;;;4.10;76.80;;;;;;5026796;28;20028;-88
2021/12/21 17:52:53;;;;;;;7.75;6.07;;;4.00;76.80;;;;;;5048517;28;20048;-88
2021/12/21 17:58:49;;;;;;;;;;;;;;;;;;;;;
2021/12/21 18:02:18;;;;;;;9.95;6.43;;;4.00;76.80;;;;;;5025042;28;20063;-89
2021/12/21 18:05:47;;;;;;;;;;;;;;;;;;;;;
2021/12/21 18:08:35;;;;;;;8.35;6.40;;;3.90;76.80;;;;;;5055690;28;20053;-89
2021/12/21 18:11:42;;;;;;;9.02;6.65;;;3.90;76.60;;;;;;5039402;28;20038;-88
2021/12/21 18:14:25;;;;;;;7.82;5.93;;;3.90;76.70;;;;;;5023244;28;20101;-87
2021/12/21 18:16:56;;;;;;;8.50;6.93;;;3.90;76.40;;;;;;5005521;28;20041;-88
2021/12/21 18:19:43;;;;;;;;;;;;;;;;;;;;;
2021/12/21 18:22:37;;;;;;;8.32;6.68;;;3.90;76.70;;;;;;5018597;28;20492;-88
2021/12/21 18:25:33;;;;;;;8.98;6.80;;;3.90;76.70;;;;;;5007663;28;20049;-88
2021/12/21 18:28:04;;;;;;;7.80;6.07;;;3.90;76.70;;;;;;5002290;28;20040;-87
2021/12/21 18:30:36;;;;;;;8.77;6.32;;;3.80;76.60;;;;;;5002812;28;20037;-87
2021/12/21 18:33:12;;;;;;;8.60;6.70;;;3.80;76.60;;;;;;5004316;28;20041;-87
2021/12/21 18:35:49;;;;;;;8.52;6.88;;;3.90;76.60;;;;;;5002022;28;20045;-87
2021/12/21 18:38:36;;;;;;;8.48;6.82;;;3.80;76.60;;;;;;5004965;28;20030;-87
2021/12/21 18:41:28;;;;;;;8.80;6.80;;;3.80;76.60;;;;;;5003839;28;20045;-87
2021/12/21 18:44:04;;;;;;;8.98;6.65;;;3.90;76.70;;;;;;4988052;28;20057;-92
2021/12/21 18:46:58;;;;;;;8.95;6.45;;;3.80;76.50;;;;;;4993701;28;20116;-88
2021/12/21 18:49:41;;;;;;;8.48;6.20;;;3.80;76.60;;;;;;5018630;28;20485;-87
2021/12/21 18:53:00;;;;;;;;;;;;;;;;;;;;;
2021/12/21 18:55:57;;;;;;;8.73;6.35;;;3.80;76.60;;;;;;5032896;28;20375;-87
2021/12/21 18:58:31;;;;;;;8.63;6.22;;;3.80;76.60;;;;;;4998090;28;20034;-87
2021/12/21 19:01:10;;;;;;;8.35;6.72;;;3.80;76.60;;;;;;5016248;28;20053;-90
2021/12/21 19:04:02;;;;;;;;;;;;;;;;;;;;;
2021/12/21 19:06:54;;;;;;;;;;;;;;;;;;;;;
2021/12/21 19:09:44;;;;;;;8.18;6.25;;;3.70;76.50;;;;;;5004950;28;20112;-89
2021/12/21 19:12:46;;;;;;;9.27;6.80;;;3.70;76.60;;;;;;5020112;28;20463;-89
2021/12/21 19:15:33;;;;;;;7.97;5.93;;;3.70;76.60;;;;;;4998090;28;20531;-87
2021/12/21 19:18:12;;;;;;;8.55;6.50;;;3.70;76.70;;;;;;5001005;28;20073;-88
2021/12/21 19:20:48;;;;;;;10.00;6.93;;;3.70;76.60;;;;;;4993315;28;20455;-88
2021/12/21 19:23:25;;;;;;;8.32;6.25;;;3.70;76.60;;;;;;4997227;28;20037;-90
2021/12/21 19:29:36;;;;;;;9.18;6.47;;;3.70;76.50;;;;;;5034006;28;20044;-89
2021/12/21 19:32:26;;;;;;;8.90;6.82;;;3.60;76.50;;;;;;5034738;28;20045;-88
2021/12/21 19:35:07;;;;;;;10.48;6.43;;;3.60;76.50;;;;;;4986678;28;20042;-88
2021/12/21 19:41:05;;;;;;;9.63;6.95;;;3.60;76.50;;;;;;4998519;28;20040;-87
2021/12/21 19:43:52;;;;;;;8.85;6.50;;;3.60;77.10;;;;;;5005738;28;20116;-88
2021/12/21 19:46:27;;;;;;;8.88;6.30;;;3.60;76.50;;;;;;5001870;28;20025;-92
2021/12/21 19:48:56;;;;;;;9.20;7.00;;;3.60;76.50;;;;;;5000235;28;20033;-89
2021/12/21 19:51:33;;;;;;;8.95;6.82;;;3.50;76.40;;;;;;5002183;28;20514;-87
2021/12/21 19:54:06;;;;;;;11.27;7.13;;;3.60;76.50;;;;;;4986396;28;20045;-87
2021/12/21 19:56:53;;;;;;;9.75;7.22;;;3.50;76.40;;;;;;5018500;28;20048;-85
2021/12/21 19:59:59;;;;;;;;;;;;;;;;;;;;;
2021/12/21 20:02:40;;;;;;;9.13;6.60;;;3.50;76.40;;;;;;5014970;28;20076;-88
2021/12/21 20:05:21;;;;;;;10.85;7.65;;;3.50;76.30;;;;;;5039316;28;20063;-89
2021/12/21 20:08:04;;;;;;;9.68;7.47;;;3.50;76.30;;;;;;5054307;28;20037;-88
2021/12/21 20:10:37;;;;;;;8.70;6.57;;;3.40;76.30;;;;;;5023091;28;20438;-87
2021/12/21 20:13:26;;;;;;;8.32;6.32;;;3.50;76.40;;;;;;5053772;28;20083;-87
2021/12/21 20:16:18;;;;;;;8.27;6.50;;;3.50;76.40;;;;;;5051760;28;20126;-87
2021/12/21 20:19:03;;;;;;;8.50;6.38;;;3.40;76.30;;;;;;5053422;28;20041;-87
2021/12/21 20:21:29;;;;;;;8.88;6.75;;;3.40;76.30;;;;;;5036974;28;20037;-86
2021/12/21 20:24:05;;;;;;;8.63;6.47;;;3.40;76.20;;;;;;5053108;28;20033;-87
2021/12/21 20:27:22;;;;;;;;;;;;;;;;;;;;;
2021/12/21 20:30:03;;;;;;;10.15;6.75;;;3.40;76.30;;;;;;5053411;28;20092;-87
2021/12/21 20:32:48;;;;;;;9.07;6.55;;;3.40;76.20;;;;;;5039639;28;20060;-88
2021/12/21 20:35:27;;;;;;;10.95;7.35;;;3.30;76.20;;;;;;5037410;28;20037;-89
2021/12/21 20:38:15;;;;;;;;;;;;;;;;;;;;;
2021/12/21 20:40:59;;;;;;;9.18;7.05;;;3.30;76.20;;;;;;5052870;28;20100;-89
2021/12/21 20:44:04;;;;;;;9.00;6.47;;;3.30;76.10;;;;;;5035768;28;20037;-88
2021/12/21 20:46:35;;;;;;;8.23;6.60;;;3.30;76.20;;;;;;5037183;28;20033;-87
2021/12/21 20:49:14;;;;;;;10.63;8.03;;;3.30;76.20;;;;;;5021213;28;20112;-87
2021/12/21 20:51:43;;;;;;;8.85;6.40;;;3.30;76.20;;;;;;5035898;28;20283;-85